Terminal Aerodrome Forecast
Issued by NWS Memphis, TN

Home | Current Version | Previous Version | Text Only | Print | Product List | Glossary On
Versions: 1 2 3 4 5 6 7 8 9 10 11 12 13 14 15 16
000
FTUS44 KMEG 010538
TAFMKL
TAF
KMKL 010538Z 0106/0206 VRB03KT P6SM FEW060 BKN150
     FM010900 VRB03KT P6SM VCSH SCT040 OVC090
      TEMPO 0111/0114 OVC025
     FM011400 19005KT 6SM -SHRA BKN015 OVC045
     FM011600 VRB03KT 5SM -SHRA BR OVC008
     FM012300 01005KT 6SM BR VCSH OVC005=

USA.gov is the U.S. government's official web portal to all federal, state and local government web resources and services.